createdAt,value
2023-04-25T07:02:59.155Z,2.00
2023-04-25T07:06:02.628Z,1.98
2023-04-25T07:09:06.362Z,2.15
2023-04-25T07:12:09.060Z,2.05
2023-04-25T07:15:12.622Z,1.95
2023-04-25T07:18:17.524Z,2.40
2023-04-25T07:21:20.305Z,2.15
2023-04-25T07:24:23.608Z,2.70
2023-04-25T07:27:26.274Z,2.20
2023-04-25T07:30:29.307Z,2.37
2023-04-25T07:33:33.110Z,2.37
2023-04-25T07:36:35.813Z,2.47
2023-04-25T07:39:38.283Z,2.03
2023-04-25T07:42:41.833Z,2.95
2023-04-25T07:45:45.791Z,2.55
2023-04-25T07:48:50.402Z,2.42
2023-04-25T07:51:53.053Z,2.58
2023-04-25T07:54:56.094Z,1.42
2023-04-25T07:57:58.869Z,1.40
2023-04-25T08:01:04.212Z,2.40
2023-04-25T08:04:09.514Z,2.45
2023-04-25T08:07:17.608Z,2.28
2023-04-25T08:13:24.685Z,2.62
2023-04-25T08:16:27.684Z,2.30
2023-04-25T08:19:31.907Z,2.10
2023-04-25T08:22:34.999Z,2.00
2023-04-25T08:25:41.013Z,2.42
2023-04-25T08:28:44.130Z,2.70
2023-04-25T08:31:46.831Z,2.25
2023-04-25T08:34:52.266Z,2.40
2023-04-25T08:37:54.813Z,2.00
2023-04-25T08:40:57.506Z,2.45
2023-04-25T08:44:01.442Z,2.25
2023-04-25T08:47:05.174Z,2.62
2023-04-25T08:53:15.012Z,1.60
2023-04-25T08:56:18.782Z,1.48
2023-04-25T08:59:21.718Z,1.20
2023-04-25T09:02:24.300Z,1.00
2023-04-25T09:05:29.720Z,0.90
2023-04-25T09:08:32.222Z,0.52
2023-04-25T09:11:36.809Z,1.30
2023-04-25T09:14:40.123Z,1.15
2023-04-25T09:17:45.373Z,1.05
2023-04-25T09:23:55.376Z,0.98
2023-04-25T09:26:57.846Z,0.60
2023-04-25T09:30:03.559Z,0.70
2023-04-25T09:33:07.664Z,0.90
2023-04-25T09:36:13.071Z,1.50
2023-04-25T09:39:16.692Z,0.43
2023-04-25T09:42:22.101Z,0.90
2023-04-25T09:45:24.588Z,1.00
2023-04-25T09:48:27.921Z,0.60
2023-04-25T09:51:32.357Z,0.82
2023-04-25T09:54:35.491Z,0.60
2023-04-25T09:57:40.901Z,0.50
2023-04-25T10:00:43.685Z,1.02
2023-04-25T10:03:48.416Z,0.80
2023-04-25T10:10:00.396Z,0.60
2023-04-25T10:13:05.111Z,0.35
2023-04-25T10:16:07.881Z,0.60
2023-04-25T10:19:10.935Z,0.80
2023-04-25T10:22:18.585Z,1.00
2023-04-25T10:25:21.104Z,0.80
2023-04-25T10:28:23.852Z,0.50
2023-04-25T10:31:26.638Z,0.80
2023-04-25T10:34:40.740Z,1.05
2023-04-25T10:41:11.288Z,0.70
2023-04-25T10:44:14.231Z,1.12
2023-04-25T10:47:16.604Z,0.90
2023-04-25T10:50:19.303Z,0.60
2023-04-25T10:53:21.767Z,0.68
2023-04-25T10:56:26.631Z,0.60
2023-04-25T10:59:29.023Z,1.10
2023-04-25T11:02:31.912Z,0.70
2023-04-25T11:05:43.978Z,0.80
2023-04-25T11:08:51.624Z,0.80
2023-04-25T11:11:56.493Z,1.00
2023-04-25T11:15:02.015Z,0.70
2023-04-25T11:18:04.818Z,0.80
2023-04-25T11:21:07.461Z,0.47
2023-04-25T11:24:09.908Z,0.85
2023-04-25T11:27:13.990Z,0.50
2023-04-25T11:30:17.105Z,0.90
2023-04-25T11:33:23.791Z,0.80
2023-04-25T11:36:27.909Z,1.15
2023-04-25T11:39:30.951Z,0.40
2023-04-25T11:42:34.763Z,1.90
2023-04-25T11:45:38.027Z,0.62
2023-04-25T11:48:40.892Z,0.50
2023-04-25T11:51:44.278Z,0.30
2023-04-25T11:54:47.602Z,1.17
2023-04-25T11:57:51.788Z,0.47
2023-04-25T12:03:57.136Z,0.50
2023-04-25T12:07:01.719Z,0.50
2023-04-25T12:10:08.936Z,0.68
2023-04-25T12:13:25.580Z,0.40
2023-04-25T12:16:28.354Z,0.50
2023-04-25T12:19:34.321Z,0.50
2023-04-25T12:22:37.494Z,0.50
2023-04-25T12:25:41.081Z,0.50
2023-04-25T12:34:51.562Z,0.47
2023-04-25T12:37:53.935Z,0.35
2023-04-25T12:40:56.723Z,0.62
2023-04-25T12:44:00.544Z,0.60
2023-04-25T12:47:04.247Z,0.52
2023-04-25T12:50:07.783Z,0.30
2023-04-25T12:53:10.659Z,0.52
2023-04-25T12:56:13.063Z,0.43
2023-04-25T12:59:17.314Z,0.60
2023-04-25T13:02:20.018Z,0.45
2023-04-25T13:05:22.810Z,0.90
2023-04-25T13:08:25.206Z,0.60
2023-04-25T13:11:28.084Z,0.52
2023-04-25T13:14:31.892Z,0.62
2023-04-25T13:17:34.691Z,0.35
2023-04-25T13:20:37.134Z,0.50
2023-04-25T13:23:39.901Z,0.22
2023-04-25T13:26:42.392Z,0.50
2023-04-25T13:29:46.491Z,0.30
2023-04-25T13:32:48.967Z,1.95
2023-04-25T13:35:54.918Z,0.70
2023-04-25T13:38:57.328Z,0.73
2023-04-25T13:42:00.070Z,1.05
2023-04-25T13:45:04.318Z,0.95
2023-04-25T13:48:08.123Z,0.60
2023-04-25T13:51:10.710Z,0.50
2023-04-25T13:54:13.439Z,0.50
2023-04-25T13:57:16.315Z,0.60
2023-04-25T14:00:21.289Z,0.50
2023-04-25T14:03:23.982Z,0.88
2023-04-25T14:06:26.919Z,0.50
2023-04-25T14:09:29.728Z,0.45
2023-04-25T14:12:33.249Z,0.70
2023-04-25T14:15:37.516Z,0.70
2023-04-25T14:18:40.005Z,0.50
2023-04-25T14:21:43.580Z,1.83
2023-04-25T14:24:46.343Z,0.60
2023-04-25T14:27:50.944Z,0.60
2023-04-25T14:30:54.876Z,0.73
2023-04-25T14:33:59.354Z,0.70
2023-04-25T14:37:02.186Z,0.60
2023-04-25T14:40:06.113Z,1.15
2023-04-25T14:43:08.524Z,0.75
2023-04-25T14:46:12.952Z,0.80
2023-04-25T14:49:15.508Z,0.65
2023-04-25T14:52:18.148Z,0.90
2023-04-25T14:55:20.823Z,0.68
2023-04-25T14:58:23.850Z,0.70
2023-04-25T15:01:27.778Z,0.62
2023-04-25T15:04:30.526Z,0.80
2023-04-25T15:07:34.639Z,0.70
2023-04-25T15:10:37.451Z,1.35
2023-04-25T15:13:39.988Z,1.02
2023-04-25T15:16:44.039Z,1.10
2023-04-25T15:19:46.729Z,1.35
2023-04-25T15:22:49.818Z,0.90
2023-04-25T15:25:53.564Z,0.90
2023-04-25T15:28:56.865Z,1.20
2023-04-25T15:32:00.691Z,2.00
2023-04-25T15:35:04.391Z,1.20
2023-04-25T15:38:06.779Z,0.93
2023-04-25T15:41:09.467Z,0.80
2023-04-25T15:44:11.901Z,0.68
2023-04-25T15:47:15.924Z,0.80
2023-04-25T15:50:18.440Z,1.08
2023-04-25T15:53:21.250Z,0.90
2023-04-25T15:56:24.182Z,0.80
2023-04-25T15:59:27.489Z,0.80
2023-04-25T16:02:31.839Z,0.68
2023-04-25T16:05:34.650Z,0.80
2023-04-25T16:08:37.062Z,2.22
2023-04-25T16:11:39.712Z,1.10
2023-04-25T16:14:42.268Z,0.90
2023-04-25T16:17:46.332Z,0.93
2023-04-25T16:23:51.428Z,0.80
2023-04-25T16:26:54.012Z,1.00
2023-04-25T16:29:56.871Z,0.75
2023-04-25T16:33:00.690Z,0.80
2023-04-25T16:36:03.632Z,0.80
2023-04-25T16:39:08.379Z,0.95
2023-04-25T16:42:11.038Z,0.73
2023-04-25T16:45:13.475Z,0.90
2023-04-25T16:48:19.763Z,1.05
